Time;durP1;ratioP1;P1;durP2;ratioP2;P2;SDS_P1;SDS_P2;PMS_P1;PMS_P2;Temp;Humidity;BMP_temperature;BMP_pressure;BME280_temperature;BME280_humidity;BME280_pressure;Samples;Min_cycle;Max_cycle;Signal;HPM_P1;HPM_P2
2021/12/10 00:01:25;;;;;;;4.30;2.10;;;4.70;95.20;;;;;;4806277;29;20047;-78
2021/12/10 00:03:54;;;;;;;5.25;2.72;;;4.70;95.20;;;;;;4807875;29;20106;-78
2021/12/10 00:06:26;;;;;;;5.85;3.00;;;4.70;95.20;;;;;;4798384;29;20134;-77
2021/12/10 00:08:59;;;;;;;5.50;2.67;;;4.70;95.10;;;;;;4806515;29;20058;-78
2021/12/10 00:11:41;;;;;;;3.85;2.05;;;4.70;95.20;;;;;;4823987;29;20055;-77
2021/12/10 00:14:09;;;;;;;5.78;2.50;;;4.60;95.20;;;;;;4824368;29;20397;-77
2021/12/10 00:16:37;;;;;;;8.32;2.38;;;4.60;95.20;;;;;;4808779;29;20054;-78
2021/12/10 00:21:52;;;;;;;8.15;3.13;;;4.50;95.20;;;;;;4810157;29;20141;-77
2021/12/10 00:24:24;;;;;;;5.88;2.25;;;4.50;95.20;;;;;;4821310;29;20994;-77
2021/12/10 00:26:53;;;;;;;4.68;2.50;;;4.50;95.10;;;;;;4823761;29;20075;-77
2021/12/10 00:29:21;;;;;;;5.18;2.53;;;4.50;95.20;;;;;;4810814;29;20125;-77
2021/12/10 00:31:53;;;;;;;4.80;1.95;;;4.50;95.20;;;;;;4811351;29;20062;-77
2021/12/10 00:34:36;;;;;;;3.58;1.80;;;4.40;95.20;;;;;;4812851;29;20085;-79
2021/12/10 00:37:08;;;;;;;4.55;1.70;;;4.40;95.20;;;;;;4811487;29;20062;-78
2021/12/10 00:39:48;;;;;;;3.15;1.58;;;4.30;95.30;;;;;;4809621;29;20555;-77
2021/12/10 00:42:24;;;;;;;4.72;1.98;;;4.30;95.30;;;;;;4810244;29;20061;-78
2021/12/10 00:44:52;;;;;;;4.15;1.48;;;4.20;95.30;;;;;;4812551;29;20090;-79
2021/12/10 00:47:19;;;;;;;5.22;1.98;;;4.20;95.30;;;;;;4810871;29;20070;-78
2021/12/10 00:49:46;;;;;;;4.15;1.65;;;4.20;95.40;;;;;;4823662;29;20154;-79
2021/12/10 00:52:15;;;;;;;3.72;1.75;;;4.10;95.40;;;;;;4806879;29;20531;-77
2021/12/10 00:54:44;;;;;;;3.63;1.65;;;4.10;95.40;;;;;;4825436;29;20082;-77
2021/12/10 00:57:13;;;;;;;5.07;1.70;;;4.20;95.40;;;;;;4809889;29;20143;-77
2021/12/10 00:59:44;;;;;;;4.13;2.13;;;4.20;95.40;;;;;;4825068;29;20058;-78
2021/12/10 01:02:14;;;;;;;4.82;2.03;;;4.20;95.40;;;;;;4825933;29;20099;-78
2021/12/10 01:04:45;;;;;;;2.88;1.52;;;4.20;95.40;;;;;;4813309;29;20066;-78
2021/12/10 01:07:15;;;;;;;4.68;1.70;;;4.30;95.40;;;;;;4823094;29;20063;-78
2021/12/10 01:09:46;;;;;;;4.90;1.98;;;4.30;95.30;;;;;;4802588;29;20115;-78
2021/12/10 01:12:41;;;;;;;4.03;2.00;;;4.40;95.30;;;;;;4810528;29;20055;-78
2021/12/10 01:26:26;;;;;;;5.32;2.30;;;4.50;95.20;;;;;;4826111;29;20081;-78
2021/12/10 01:28:58;;;;;;;5.13;2.15;;;4.50;95.20;;;;;;4801116;29;20054;-77
2021/12/10 01:31:25;;;;;;;7.00;3.25;;;4.50;95.10;;;;;;4810933;29;20054;-77
2021/12/10 01:33:53;;;;;;;6.20;3.35;;;4.60;95.20;;;;;;4792614;29;20051;-78
2021/12/10 01:36:22;;;;;;;6.13;2.65;;;4.60;95.10;;;;;;4807916;29;20059;-78
2021/12/10 01:38:52;;;;;;;6.30;2.47;;;4.60;95.10;;;;;;4817097;29;20145;-78
2021/12/10 01:41:28;;;;;;;4.45;2.53;;;4.60;95.10;;;;;;4809407;29;20059;-78
2021/12/10 01:44:01;;;;;;;4.22;1.75;;;4.60;95.10;;;;;;4827404;29;21448;-78
2021/12/10 01:46:30;;;;;;;4.40;2.20;;;4.50;95.00;;;;;;4823535;29;20108;-78
2021/12/10 01:49:02;;;;;;;6.13;2.53;;;4.40;95.10;;;;;;4792400;29;20043;-78
2021/12/10 01:51:32;;;;;;;3.88;2.03;;;4.40;95.10;;;;;;4805902;29;20082;-78
2021/12/10 01:54:05;;;;;;;3.75;2.10;;;4.30;95.10;;;;;;4816740;29;20058;-78
2021/12/10 01:56:36;;;;;;;4.93;2.58;;;4.30;95.10;;;;;;4800753;29;20063;-78
2021/12/10 01:59:06;;;;;;;6.25;2.50;;;4.20;95.10;;;;;;4818714;29;20058;-78
2021/12/10 02:01:38;;;;;;;3.63;1.70;;;4.10;95.10;;;;;;4806836;29;20103;-79
2021/12/10 02:04:07;;;;;;;;;;;4.10;95.20;;;;;;4816137;29;20070;-78
2021/12/10 02:06:35;;;;;;;7.22;2.25;;;4.00;95.20;;;;;;4809120;29;19933;-77
2021/12/10 02:09:04;;;;;;;3.25;1.33;;;3.90;95.20;;;;;;4811370;29;20113;-76
2021/12/10 02:11:31;;;;;;;3.55;1.30;;;3.90;95.30;;;;;;4811258;29;20047;-78
2021/12/10 02:13:58;;;;;;;3.30;1.33;;;3.80;95.30;;;;;;4781467;29;20061;-78
2021/12/10 02:16:26;;;;;;;3.85;1.75;;;3.80;95.30;;;;;;4794148;29;20058;-77
2021/12/10 02:18:53;;;;;;;4.72;2.05;;;3.80;95.30;;;;;;4793627;29;20132;-78
2021/12/10 02:21:22;;;;;;;4.82;1.58;;;3.70;95.30;;;;;;4809400;29;20069;-77
2021/12/10 02:23:57;;;;;;;2.97;1.02;;;3.70;95.30;;;;;;4821740;29;21075;-78
2021/12/10 02:26:28;;;;;;;2.92;1.42;;;3.70;95.40;;;;;;4824386;29;20095;-78
2021/12/10 02:28:56;;;;;;;3.38;1.38;;;3.60;95.40;;;;;;4809813;29;20078;-78
2021/12/10 02:31:24;;;;;;;2.78;1.40;;;3.60;95.40;;;;;;4809660;29;20042;-76
2021/12/10 02:33:51;;;;;;;3.00;1.02;;;3.60;95.40;;;;;;4824927;29;20136;-77
2021/12/10 02:36:18;;;;;;;2.85;1.17;;;3.50;95.40;;;;;;4801216;29;20527;-78
2021/12/10 02:38:49;;;;;;;4.10;1.15;;;3.50;95.40;;;;;;4794347;29;20049;-78
2021/12/10 02:41:18;;;;;;;2.38;1.55;;;3.50;95.40;;;;;;4808438;29;20109;-77
2021/12/10 02:43:46;;;;;;;3.25;1.30;;;3.50;95.40;;;;;;4807916;29;20046;-78
2021/12/10 02:46:15;;;;;;;3.30;1.40;;;3.50;95.50;;;;;;4806560;29;20054;-78
2021/12/10 02:48:42;;;;;;;2.47;0.93;;;3.40;95.40;;;;;;4790219;29;20749;-78
2021/12/10 02:51:11;;;;;;;1.60;0.57;;;3.40;95.40;;;;;;4820753;29;20111;-78
2021/12/10 02:53:42;;;;;;;2.30;0.95;;;3.40;95.50;;;;;;4805259;29;20129;-78
2021/12/10 02:56:15;;;;;;;2.53;1.25;;;3.40;95.50;;;;;;4821552;29;20060;-78
2021/12/10 02:58:43;;;;;;;2.08;0.80;;;3.30;95.50;;;;;;4805901;29;20065;-78
2021/12/10 03:01:30;;;;;;;2.88;1.10;;;3.30;95.50;;;;;;4808399;29;20055;-78
2021/12/10 03:03:59;;;;;;;2.55;0.70;;;3.30;95.50;;;;;;4818883;29;20077;-78
2021/12/10 03:06:29;;;;;;;3.15;1.00;;;3.30;95.50;;;;;;4821914;29;20435;-78
2021/12/10 03:08:57;;;;;;;2.40;0.90;;;3.30;95.50;;;;;;4806700;29;20046;-77
2021/12/10 03:11:31;;;;;;;2.22;0.80;;;3.30;95.50;;;;;;4809918;29;20058;-77
2021/12/10 03:14:05;;;;;;;2.30;0.70;;;3.30;95.50;;;;;;4808277;29;20111;-77
2021/12/10 03:16:33;;;;;;;2.75;1.30;;;3.20;95.50;;;;;;4825615;29;20115;-76
2021/12/10 03:19:00;;;;;;;2.55;0.90;;;3.20;95.50;;;;;;4823865;29;20053;-77
2021/12/10 03:21:27;;;;;;;2.92;1.40;;;3.20;95.50;;;;;;4809271;29;20079;-78
2021/12/10 03:23:54;;;;;;;2.53;1.00;;;3.20;95.50;;;;;;4807576;29;20112;-78
2021/12/10 03:26:22;;;;;;;2.53;0.88;;;3.20;95.50;;;;;;4804002;29;20100;-79
2021/12/10 03:28:52;;;;;;;1.80;0.80;;;3.20;95.50;;;;;;4796031;29;20113;-77
2021/12/10 03:31:22;;;;;;;3.40;1.25;;;3.20;95.50;;;;;;4793364;29;20115;-78
2021/12/10 03:33:51;;;;;;;3.25;1.30;;;3.20;95.50;;;;;;4821409;29;20050;-78
2021/12/10 03:36:18;;;;;;;2.20;0.93;;;3.20;95.50;;;;;;4805917;29;20054;-78
2021/12/10 03:38:46;;;;;;;1.88;0.80;;;3.20;95.50;;;;;;4776957;29;20070;-79
2021/12/10 03:41:13;;;;;;;1.60;0.70;;;3.20;95.50;;;;;;4809291;29;20106;-76
2021/12/10 03:43:41;;;;;;;3.15;1.30;;;3.20;95.50;;;;;;4808818;29;20133;-77
2021/12/10 03:46:09;;;;;;;2.55;0.90;;;3.20;95.50;;;;;;4809579;29;20506;-77
2021/12/10 03:48:40;;;;;;;2.92;1.02;;;3.20;95.50;;;;;;4807229;29;20047;-77
2021/12/10 03:51:21;;;;;;;2.75;0.90;;;3.20;95.40;;;;;;4808223;29;20053;-78
2021/12/10 03:53:52;;;;;;;2.83;1.48;;;3.20;95.40;;;;;;4807082;29;20142;-78
2021/12/10 03:56:21;;;;;;;2.58;0.90;;;3.20;95.50;;;;;;4807734;29;20069;-77
2021/12/10 03:58:49;;;;;;;3.70;1.15;;;3.20;95.50;;;;;;4807860;29;20096;-78
2021/12/10 04:01:21;;;;;;;3.35;1.27;;;3.20;95.40;;;;;;4776503;29;20082;-78
2021/12/10 04:03:51;;;;;;;2.30;1.17;;;3.20;95.40;;;;;;4807985;29;20066;-78
2021/12/10 04:06:21;;;;;;;3.00;1.30;;;3.10;95.40;;;;;;4812331;29;20078;-78
2021/12/10 04:08:54;;;;;;;3.63;1.50;;;3.20;95.40;;;;;;4813154;29;20046;-78
2021/12/10 04:11:21;;;;;;;3.28;1.38;;;3.20;95.40;;;;;;4808112;29;20050;-78
2021/12/10 04:13:51;;;;;;;2.13;0.70;;;3.20;95.40;;;;;;4827208;29;21152;-79
2021/12/10 04:16:21;;;;;;;4.72;1.42;;;3.10;95.40;;;;;;4828325;29;20473;-78
2021/12/10 04:18:50;;;;;;;2.08;0.93;;;3.10;95.40;;;;;;4826034;29;20702;-78
2021/12/10 04:21:19;;;;;;;2.83;1.20;;;3.10;95.40;;;;;;4810351;29;20066;-78
2021/12/10 04:23:48;;;;;;;2.22;0.98;;;3.10;95.40;;;;;;4812113;29;20062;-78
2021/12/10 04:26:18;;;;;;;3.80;1.55;;;3.10;95.70;;;;;;4810684;29;20900;-78
2021/12/10 04:28:46;;;;;;;3.15;1.33;;;3.10;95.40;;;;;;4828843;29;20103;-78
2021/12/10 04:31:14;;;;;;;2.60;1.10;;;3.20;95.40;;;;;;4811961;29;20270;-79
2021/12/10 04:33:41;;;;;;;3.08;1.30;;;3.20;95.40;;;;;;4808947;29;20050;-77
2021/12/10 04:36:08;;;;;;;3.00;1.23;;;3.20;95.40;;;;;;4797228;29;20095;-77
2021/12/10 04:38:36;;;;;;;2.92;1.13;;;3.20;95.40;;;;;;4812138;29;20079;-77
2021/12/10 04:41:07;;;;;;;2.60;1.17;;;3.10;95.30;;;;;;4809769;29;20387;-78
2021/12/10 04:43:37;;;;;;;2.17;0.80;;;3.20;95.30;;;;;;4812586;29;20109;-79
2021/12/10 04:46:06;;;;;;;2.67;1.25;;;3.10;95.60;;;;;;4810304;29;20103;-78
2021/12/10 04:49:00;;;;;;;2.83;1.00;;;3.10;95.30;;;;;;4827249;29;20054;-78
2021/12/10 04:51:30;;;;;;;2.42;0.80;;;3.10;95.30;;;;;;4802429;29;20074;-78
2021/12/10 04:53:58;;;;;;;2.85;1.20;;;3.10;95.30;;;;;;4813113;29;20104;-78
2021/12/10 04:56:27;;;;;;;2.50;0.90;;;3.10;95.30;;;;;;4809292;29;20074;-78
2021/12/10 04:58:55;;;;;;;2.60;0.80;;;3.10;95.30;;;;;;4817354;29;20080;-79
2021/12/10 05:01:22;;;;;;;3.35;1.10;;;3.10;95.30;;;;;;4792611;29;20050;-78
2021/12/10 05:03:52;;;;;;;1.77;0.85;;;3.10;95.30;;;;;;4827475;29;20082;-78
2021/12/10 05:06:20;;;;;;;1.65;0.77;;;3.10;95.30;;;;;;4795359;29;20058;-78
2021/12/10 05:08:48;;;;;;;2.25;0.65;;;3.10;95.30;;;;;;4797727;29;20469;-76
2021/12/10 05:11:16;;;;;;;2.40;1.00;;;3.10;95.30;;;;;;4806390;29;20115;-77
2021/12/10 05:13:46;;;;;;;5.55;1.20;;;3.10;95.30;;;;;;4807204;29;20093;-77
2021/12/10 05:16:17;;;;;;;2.70;1.15;;;3.00;95.30;;;;;;4824667;29;20057;-78
2021/12/10 05:18:53;;;;;;;2.85;1.00;;;3.10;95.30;;;;;;4826956;29;20090;-79
2021/12/10 05:21:20;;;;;;;2.97;1.50;;;3.10;95.30;;;;;;4809277;29;20059;-77
2021/12/10 05:23:48;;;;;;;2.47;1.20;;;3.00;95.20;;;;;;4806165;29;20089;-77
2021/12/10 05:26:15;;;;;;;4.40;1.33;;;3.10;95.30;;;;;;4821676;29;20457;-77
2021/12/10 05:28:43;;;;;;;3.15;1.10;;;3.00;95.20;;;;;;4796961;29;20086;-78
2021/12/10 05:31:10;;;;;;;7.10;1.35;;;3.00;95.20;;;;;;4816789;29;20054;-76
2021/12/10 05:33:37;;;;;;;7.60;1.75;;;3.00;95.20;;;;;;4822977;29;20055;-78
2021/12/10 05:36:05;;;;;;;4.70;1.30;;;3.00;95.20;;;;;;4794870;29;20058;-79
2021/12/10 05:38:33;;;;;;;2.45;0.95;;;3.00;95.30;;;;;;4810797;29;20176;-79
2021/12/10 05:41:05;;;;;;;6.38;1.55;;;3.00;95.20;;;;;;4811205;29;20063;-76
2021/12/10 05:43:33;;;;;;;4.47;1.17;;;3.00;95.20;;;;;;4816810;29;20051;-77
2021/12/10 05:46:01;;;;;;;4.22;1.20;;;3.00;95.20;;;;;;4809072;29;20106;-77
2021/12/10 05:48:28;;;;;;;4.00;1.33;;;3.00;95.20;;;;;;4822663;29;20107;-79
2021/12/10 05:50:55;;;;;;;3.50;1.45;;;3.00;95.20;;;;;;4809517;29;20061;-79
2021/12/10 05:53:23;;;;;;;4.13;1.25;;;3.00;95.20;;;;;;4795010;29;20103;-79
2021/12/10 05:55:50;;;;;;;4.38;1.35;;;3.00;95.20;;;;;;4808609;29;20142;-78
2021/12/10 05:58:18;;;;;;;5.88;2.00;;;3.10;95.20;;;;;;4822815;29;20062;-78
2021/12/10 06:00:49;;;;;;;2.97;1.10;;;3.10;95.20;;;;;;4826886;29;20058;-79
2021/12/10 06:03:17;;;;;;;4.97;1.45;;;3.10;95.10;;;;;;4808168;29;20050;-78
2021/12/10 06:05:47;;;;;;;5.22;1.30;;;3.10;95.10;;;;;;4809121;29;20107;-78
2021/12/10 06:08:15;;;;;;;4.63;1.45;;;3.20;95.10;;;;;;4812083;29;20047;-78
2021/12/10 06:10:44;;;;;;;2.40;0.90;;;3.20;95.10;;;;;;4809439;29;20055;-79
2021/12/10 06:13:11;;;;;;;4.50;1.67;;;3.20;95.10;;;;;;4808382;29;20069;-78
2021/12/10 06:15:39;;;;;;;2.85;0.90;;;3.30;95.10;;;;;;4822976;29;20051;-78
2021/12/10 06:18:07;;;;;;;2.33;0.80;;;3.30;95.10;;;;;;4825809;29;20058;-79
2021/12/10 06:20:38;;;;;;;2.85;1.20;;;3.30;95.00;;;;;;4808227;29;20179;-78
2021/12/10 06:23:06;;;;;;;2.28;0.95;;;3.30;95.00;;;;;;4821207;29;20062;-79
2021/12/10 06:25:34;;;;;;;2.45;0.80;;;3.30;95.00;;;;;;4807404;29;20078;-78
2021/12/10 06:28:03;;;;;;;2.63;0.88;;;3.30;95.00;;;;;;4808080;29;20107;-78
2021/12/10 06:30:38;;;;;;;1.60;0.70;;;3.30;95.00;;;;;;4823373;29;20051;-77
2021/12/10 06:33:09;;;;;;;2.85;0.60;;;3.30;95.00;;;;;;4803333;29;20055;-78
2021/12/10 06:35:38;;;;;;;2.03;0.77;;;3.30;95.00;;;;;;4806871;29;20506;-78
2021/12/10 06:38:07;;;;;;;1.73;0.70;;;3.30;95.00;;;;;;4821274;29;20088;-78
2021/12/10 06:40:36;;;;;;;2.17;0.80;;;3.30;95.00;;;;;;4807672;29;20963;-78
2021/12/10 06:43:04;;;;;;;1.77;0.75;;;3.30;94.90;;;;;;4799949;29;20058;-77
2021/12/10 06:45:32;;;;;;;1.80;0.70;;;3.30;94.90;;;;;;4806677;29;20064;-76
2021/12/10 06:48:02;;;;;;;1.92;0.70;;;3.30;94.90;;;;;;4822249;29;20046;-76
2021/12/10 06:50:34;;;;;;;1.92;0.60;;;3.40;94.90;;;;;;4821516;29;20046;-79
2021/12/10 06:53:03;;;;;;;3.13;0.60;;;3.40;94.90;;;;;;4808846;29;20050;-84
2021/12/10 06:55:32;;;;;;;2.67;0.60;;;3.40;94.90;;;;;;4808704;29;20073;-83
2021/12/10 06:58:00;;;;;;;1.30;0.50;;;3.40;94.90;;;;;;4823075;29;20058;-82
2021/12/10 07:00:50;;;;;;;2.50;0.50;;;3.40;94.90;;;;;;4822751;29;20051;-83
2021/12/10 07:03:24;;;;;;;2.33;0.80;;;3.50;94.90;;;;;;4808710;29;20078;-81
2021/12/10 07:05:53;;;;;;;2.08;0.60;;;3.40;94.90;;;;;;4805067;29;20460;-80
2021/12/10 07:08:22;;;;;;;1.00;0.30;;;3.40;95.10;;;;;;4808459;29;20034;-83
2021/12/10 07:10:53;;;;;;;1.75;0.77;;;3.50;94.90;;;;;;4808167;29;21140;-79
2021/12/10 07:13:20;;;;;;;3.25;0.70;;;3.50;94.90;;;;;;4808407;29;20739;-80
2021/12/10 07:15:52;;;;;;;1.77;0.70;;;3.50;94.80;;;;;;4805116;29;20066;-85
2021/12/10 07:18:22;;;;;;;2.10;0.60;;;3.50;94.80;;;;;;4824148;29;20046;-83
2021/12/10 07:20:52;;;;;;;3.53;0.70;;;3.60;94.80;;;;;;4824704;29;20058;-83
2021/12/10 07:23:21;;;;;;;1.55;0.50;;;3.60;94.80;;;;;;4792906;29;20058;-81
2021/12/10 07:25:52;;;;;;;1.73;0.50;;;3.60;94.80;;;;;;4807650;29;20119;-79
2021/12/10 07:28:19;;;;;;;1.48;0.50;;;3.60;94.70;;;;;;4807069;29;20487;-81
2021/12/10 07:30:48;;;;;;;0.80;0.40;;;3.60;94.70;;;;;;4809739;29;20051;-80
2021/12/10 07:33:16;;;;;;;1.50;0.47;;;3.60;94.70;;;;;;4804584;29;20052;-80
2021/12/10 07:35:48;;;;;;;1.85;0.70;;;3.60;94.70;;;;;;4809283;29;20053;-81
2021/12/10 07:38:16;;;;;;;2.20;0.70;;;3.60;94.70;;;;;;4810474;29;20121;-80
2021/12/10 07:40:47;;;;;;;1.77;0.55;;;3.70;94.70;;;;;;4822795;29;20054;-81
2021/12/10 07:43:20;;;;;;;1.35;0.77;;;3.70;94.70;;;;;;4810361;29;20153;-81
2021/12/10 07:45:49;;;;;;;1.63;0.50;;;3.70;94.70;;;;;;4805614;29;20059;-79
2021/12/10 07:48:20;;;;;;;1.48;0.35;;;3.70;94.60;;;;;;4792741;29;20051;-81
2021/12/10 07:50:55;;;;;;;1.70;0.45;;;3.80;94.60;;;;;;4826838;29;20051;-79
2021/12/10 07:53:24;;;;;;;5.63;0.40;;;3.80;94.60;;;;;;4801231;29;20095;-79
2021/12/10 07:55:51;;;;;;;3.58;0.60;;;3.80;94.60;;;;;;4794449;29;20086;-78
2021/12/10 07:58:19;;;;;;;2.28;0.40;;;3.80;94.60;;;;;;4808992;29;20054;-79
2021/12/10 08:00:47;;;;;;;1.33;0.47;;;3.90;94.60;;;;;;4820799;29;20062;-79
2021/12/10 08:03:15;;;;;;;1.30;0.60;;;3.90;94.60;;;;;;4794134;29;20059;-78
2021/12/10 08:05:43;;;;;;;1.60;0.77;;;3.90;94.50;;;;;;4825354;29;20062;-82
2021/12/10 08:08:10;;;;;;;1.70;0.50;;;3.90;94.50;;;;;;4808641;29;20073;-82
2021/12/10 08:10:39;;;;;;;1.75;0.40;;;3.90;94.50;;;;;;4793376;29;20039;-82
2021/12/10 08:13:06;;;;;;;2.88;0.60;;;3.90;94.50;;;;;;4795084;29;20058;-79
2021/12/10 08:15:34;;;;;;;2.40;0.50;;;4.00;94.50;;;;;;4808606;29;20058;-79
2021/12/10 08:18:02;;;;;;;1.08;0.40;;;3.90;94.40;;;;;;4808033;29;20058;-79
2021/12/10 08:20:29;;;;;;;2.65;0.77;;;4.00;94.40;;;;;;4809814;29;20051;-79
2021/12/10 08:22:57;;;;;;;2.20;0.50;;;4.00;94.40;;;;;;4807682;29;20062;-79
2021/12/10 08:25:26;;;;;;;2.03;0.52;;;4.00;94.40;;;;;;4811892;29;20069;-79
2021/12/10 08:27:55;;;;;;;2.05;0.40;;;4.10;94.40;;;;;;4799895;29;20051;-79
2021/12/10 08:30:24;;;;;;;3.03;0.70;;;4.00;94.60;;;;;;4809928;29;20081;-80
2021/12/10 08:32:54;;;;;;;1.52;0.60;;;4.10;94.40;;;;;;4809267;29;20724;-80
2021/12/10 08:35:26;;;;;;;2.55;0.50;;;4.10;94.30;;;;;;4794968;29;20059;-80
2021/12/10 08:37:54;;;;;;;3.05;0.73;;;4.10;94.30;;;;;;4813469;29;20127;-80
2021/12/10 08:40:29;;;;;;;1.90;0.60;;;4.20;94.30;;;;;;4792810;29;20084;-79
2021/12/10 08:42:56;;;;;;;2.53;0.55;;;4.20;94.30;;;;;;4809322;29;20049;-80
2021/12/10 08:45:24;;;;;;;1.85;0.55;;;4.20;94.30;;;;;;4805582;29;20465;-80
2021/12/10 08:47:53;;;;;;;5.03;1.05;;;4.20;94.30;;;;;;4776199;29;20070;-82
2021/12/10 08:50:23;;;;;;;1.67;0.45;;;4.20;94.20;;;;;;4818234;29;20082;-83
2021/12/10 08:52:54;;;;;;;2.28;0.77;;;4.30;94.20;;;;;;4811407;29;20050;-83
2021/12/10 08:55:21;;;;;;;3.95;0.73;;;4.30;94.20;;;;;;4809698;29;20047;-83
2021/12/10 08:57:49;;;;;;;2.60;0.75;;;4.30;94.40;;;;;;4788498;29;20062;-84
2021/12/10 09:00:18;;;;;;;2.35;0.75;;;4.30;94.10;;;;;;4808977;29;20487;-83
2021/12/10 09:02:46;;;;;;;1.55;0.50;;;4.40;94.10;;;;;;4801601;29;20086;-83
2021/12/10 09:05:13;;;;;;;2.75;0.52;;;4.40;94.10;;;;;;4794768;29;20050;-83
2021/12/10 09:07:44;;;;;;;2.40;0.60;;;4.40;94.10;;;;;;4811160;29;20043;-84
2021/12/10 09:10:18;;;;;;;2.17;0.60;;;4.40;94.10;;;;;;4807713;29;20138;-84
2021/12/10 09:12:47;;;;;;;1.92;0.52;;;4.50;94.10;;;;;;4827376;29;20399;-82
2021/12/10 09:15:20;;;;;;;2.50;0.50;;;4.50;94.10;;;;;;4811644;29;20065;-83
2021/12/10 09:17:49;;;;;;;2.35;0.70;;;4.50;94.00;;;;;;4811103;29;20035;-83
2021/12/10 09:20:24;;;;;;;1.23;0.60;;;4.50;94.00;;;;;;4796442;29;20157;-82
2021/12/10 09:22:53;;;;;;;2.35;0.60;;;4.60;94.00;;;;;;4807797;29;20551;-83
2021/12/10 09:25:20;;;;;;;3.05;0.77;;;4.60;93.90;;;;;;4807931;29;20096;-83
2021/12/10 09:27:51;;;;;;;1.90;0.40;;;4.60;93.90;;;;;;4820109;29;20051;-83
2021/12/10 09:30:24;;;;;;;2.25;0.63;;;4.60;93.90;;;;;;4793659;29;20058;-83
2021/12/10 09:32:51;;;;;;;2.33;0.60;;;4.70;93.90;;;;;;4806982;29;20102;-83
2021/12/10 09:35:21;;;;;;;1.73;0.70;;;4.70;93.90;;;;;;4802975;29;20065;-85
2021/12/10 09:37:48;;;;;;;1.80;0.98;;;4.70;93.80;;;;;;4812660;29;20086;-83
2021/12/10 09:40:20;;;;;;;2.20;0.65;;;4.80;93.80;;;;;;4826879;29;20124;-83
2021/12/10 09:42:47;;;;;;;2.95;0.80;;;4.80;93.80;;;;;;4802131;29;20054;-80
2021/12/10 09:45:18;;;;;;;3.67;0.80;;;4.80;93.70;;;;;;4793799;29;20491;-81
2021/12/10 09:47:46;;;;;;;1.50;0.40;;;4.80;93.70;;;;;;4810485;29;20059;-79
2021/12/10 09:50:16;;;;;;;2.30;0.70;;;4.90;93.70;;;;;;4809676;29;20043;-79
2021/12/10 09:52:45;;;;;;;2.33;0.50;;;4.90;93.70;;;;;;4822752;29;20118;-78
2021/12/10 09:55:15;;;;;;;2.03;0.50;;;4.90;93.70;;;;;;4822186;29;20111;-77
2021/12/10 09:57:44;;;;;;;1.60;0.60;;;4.90;93.60;;;;;;4813236;29;20054;-78
2021/12/10 10:00:29;;;;;;;0.98;0.38;;;4.90;93.60;;;;;;4778894;29;20054;-76
2021/12/10 10:02:59;;;;;;;1.50;0.40;;;4.90;93.60;;;;;;4809415;29;20066;-79
2021/12/10 10:05:29;;;;;;;2.17;0.60;;;4.90;93.60;;;;;;4807599;29;20074;-78
2021/12/10 10:07:59;;;;;;;2.10;0.50;;;4.90;93.60;;;;;;4809605;29;20523;-79
2021/12/10 10:10:29;;;;;;;1.23;0.50;;;4.90;93.60;;;;;;4814998;29;20532;-80
2021/12/10 10:12:57;;;;;;;1.85;0.50;;;4.90;93.50;;;;;;4808806;29;20078;-81
2021/12/10 10:15:31;;;;;;;1.67;0.50;;;4.90;93.50;;;;;;4807950;29;20139;-83
2021/12/10 10:18:01;;;;;;;1.30;0.50;;;4.90;93.50;;;;;;4816374;29;20100;-80
2021/12/10 10:20:31;;;;;;;1.27;0.60;;;5.00;93.60;;;;;;4815404;29;20062;-78
2021/12/10 10:22:58;;;;;;;3.05;0.70;;;5.00;93.50;;;;;;4824932;29;20062;-79
2021/12/10 10:25:28;;;;;;;3.00;0.57;;;5.00;93.50;;;;;;4823544;29;20993;-78
2021/12/10 10:27:56;;;;;;;5.28;0.73;;;5.00;93.50;;;;;;4812001;29;20077;-78
2021/12/10 10:30:37;;;;;;;3.28;0.88;;;5.00;93.40;;;;;;4822666;29;20450;-78
2021/12/10 10:33:08;;;;;;;2.45;0.55;;;5.10;93.40;;;;;;4810601;29;20106;-79
2021/12/10 10:35:46;;;;;;;1.95;0.60;;;5.10;93.40;;;;;;4810656;29;20525;-79
2021/12/10 10:38:16;;;;;;;0.70;0.30;;;5.10;93.30;;;;;;4820502;29;20047;-79
2021/12/10 10:40:54;;;;;;;0.98;0.40;;;5.20;93.40;;;;;;4813763;29;20445;-80
2021/12/10 10:43:23;;;;;;;3.88;0.30;;;5.20;93.40;;;;;;4809721;29;20046;-79
2021/12/10 10:45:51;;;;;;;1.05;0.47;;;5.20;93.30;;;;;;4821433;29;20058;-81
2021/12/10 10:48:21;;;;;;;1.45;0.50;;;5.30;93.30;;;;;;4810084;29;20086;-83
2021/12/10 10:51:00;;;;;;;1.50;0.30;;;5.30;93.30;;;;;;4794844;29;20131;-81
2021/12/10 10:53:32;;;;;;;1.00;0.38;;;5.30;93.20;;;;;;4809638;29;20697;-77
2021/12/10 10:56:21;;;;;;;1.38;0.40;;;5.30;93.20;;;;;;4809131;29;20461;-79
2021/12/10 10:58:56;;;;;;;2.45;0.50;;;5.40;93.20;;;;;;4813164;29;20079;-80
2021/12/10 11:01:39;;;;;;;2.05;0.38;;;5.40;93.10;;;;;;4822378;29;20565;-80
2021/12/10 11:04:30;;;;;;;1.83;0.40;;;5.40;93.10;;;;;;4822046;29;20066;-81
2021/12/10 11:07:05;;;;;;;1.33;0.68;;;5.50;93.10;;;;;;4821529;29;20375;-81
2021/12/10 11:09:34;;;;;;;0.88;0.40;;;5.50;93.00;;;;;;4825706;29;20666;-81
2021/12/10 11:12:05;;;;;;;1.33;0.30;;;5.60;93.10;;;;;;4791133;29;21251;-81
2021/12/10 11:14:45;;;;;;;1.25;0.40;;;5.60;93.30;;;;;;4807669;29;20062;-81
2021/12/10 11:17:37;;;;;;;1.30;0.50;;;5.60;92.90;;;;;;4806842;29;20054;-82
2021/12/10 11:20:13;;;;;;;1.02;0.57;;;5.60;92.90;;;;;;4800059;29;20532;-83
2021/12/10 11:22:51;;;;;;;1.40;0.40;;;5.60;92.90;;;;;;4820683;29;20058;-81
2021/12/10 11:25:26;;;;;;;1.27;0.30;;;5.70;92.90;;;;;;4804294;29;20063;-82
2021/12/10 11:28:04;;;;;;;1.77;0.20;;;5.70;92.90;;;;;;4812134;29;20074;-83
2021/12/10 11:30:31;;;;;;;1.23;0.30;;;5.70;92.90;;;;;;4803034;29;20047;-83
2021/12/10 11:33:11;;;;;;;1.02;0.38;;;5.70;92.90;;;;;;4794008;29;20418;-82
2021/12/10 11:35:56;;;;;;;0.80;0.30;;;5.70;92.80;;;;;;4807613;29;20047;-81
2021/12/10 11:38:28;;;;;;;1.95;0.28;;;5.70;92.80;;;;;;4810449;29;20058;-81
2021/12/10 11:41:00;;;;;;;1.65;0.30;;;5.70;92.90;;;;;;4809620;29;20054;-81
2021/12/10 11:46:47;;;;;;;0.40;0.20;;;5.80;92.80;;;;;;4813902;29;20127;-81
2021/12/10 11:49:14;;;;;;;1.98;0.32;;;5.80;92.80;;;;;;4811558;29;20051;-80
2021/12/10 11:51:43;;;;;;;1.20;0.28;;;5.80;92.80;;;;;;4805962;29;20116;-80
2021/12/10 11:54:21;;;;;;;1.58;0.30;;;5.80;92.80;;;;;;4808010;29;20046;-81
2021/12/10 11:57:08;;;;;;;2.38;0.45;;;5.80;92.70;;;;;;4805931;29;20908;-82
2021/12/10 11:59:48;;;;;;;0.82;0.20;;;5.80;92.70;;;;;;4822333;29;20062;-81
2021/12/10 12:02:23;;;;;;;1.20;0.30;;;5.80;92.70;;;;;;4816014;29;20074;-82
2021/12/10 12:05:00;;;;;;;1.63;0.30;;;5.80;93.00;;;;;;4806375;29;20069;-83
2021/12/10 12:07:39;;;;;;;1.80;0.50;;;5.80;92.70;;;;;;4808175;29;20059;-82
2021/12/10 12:10:26;;;;;;;2.85;0.60;;;5.80;92.70;;;;;;4809160;29;20055;-83
2021/12/10 12:13:03;;;;;;;0.88;0.40;;;5.80;92.70;;;;;;4807924;29;20069;-81
2021/12/10 12:15:34;;;;;;;1.42;0.30;;;5.80;92.70;;;;;;4814141;29;20420;-81
2021/12/10 12:18:09;;;;;;;2.33;0.50;;;5.80;92.70;;;;;;4814059;29;20474;-81
2021/12/10 12:20:47;;;;;;;3.45;0.35;;;5.80;92.70;;;;;;4822576;29;20526;-81
2021/12/10 12:26:28;;;;;;;0.98;0.20;;;5.80;92.60;;;;;;4827412;29;20078;-81
2021/12/10 12:29:16;;;;;;;2.22;0.30;;;5.80;92.60;;;;;;4832091;29;20039;-81
2021/12/10 12:31:51;;;;;;;1.60;0.68;;;5.80;92.60;;;;;;4814158;29;20057;-81
2021/12/10 12:34:27;;;;;;;1.45;0.50;;;5.80;92.50;;;;;;4812051;29;20129;-77
2021/12/10 12:37:09;;;;;;;2.50;0.77;;;5.80;92.50;;;;;;4818435;29;20057;-81
2021/12/10 12:39:59;;;;;;;2.78;0.47;;;5.80;92.60;;;;;;4823712;29;20058;-78
2021/12/10 12:42:31;;;;;;;1.27;0.30;;;5.80;92.50;;;;;;4812649;29;20050;-79
2021/12/10 12:45:20;;;;;;;2.28;0.40;;;5.80;92.50;;;;;;4824778;29;20698;-79
2021/12/10 12:48:11;;;;;;;0.95;0.40;;;5.80;92.50;;;;;;4817976;29;20138;-79
2021/12/10 12:50:46;;;;;;;0.90;0.30;;;5.70;92.50;;;;;;4819251;29;20050;-78
2021/12/10 12:53:18;;;;;;;0.80;0.30;;;5.80;92.50;;;;;;4811528;29;20055;-79
2021/12/10 12:55:51;;;;;;;1.20;0.40;;;5.70;92.50;;;;;;4809661;29;20045;-77
2021/12/10 12:58:27;;;;;;;1.67;0.20;;;5.70;92.50;;;;;;4813852;29;20054;-78
2021/12/10 13:01:17;;;;;;;1.00;0.38;;;5.80;92.50;;;;;;4808375;29;20108;-76
2021/12/10 13:03:50;;;;;;;1.40;0.82;;;5.80;92.50;;;;;;4822837;29;20079;-75
2021/12/10 13:06:57;;;;;;;1.80;0.43;;;5.80;92.50;;;;;;4824280;29;20078;-76
2021/12/10 13:09:42;;;;;;;1.75;0.30;;;5.80;92.40;;;;;;4810724;29;20062;-77
2021/12/10 13:12:26;;;;;;;3.42;0.47;;;5.80;92.40;;;;;;4811184;29;20154;-77
2021/12/10 13:15:00;;;;;;;1.42;0.40;;;5.80;92.40;;;;;;4810225;29;20053;-77
2021/12/10 13:17:32;;;;;;;1.00;0.30;;;5.80;92.40;;;;;;4811091;29;20086;-77
2021/12/10 13:20:03;;;;;;;3.15;0.22;;;5.90;92.40;;;;;;4810523;29;20080;-78
2021/12/10 13:22:33;;;;;;;1.40;0.30;;;5.90;92.40;;;;;;4818880;29;20127;-77
2021/12/10 13:25:06;;;;;;;2.30;0.57;;;5.90;92.30;;;;;;4812277;29;20864;-78
2021/12/10 13:27:37;;;;;;;2.30;0.30;;;5.90;92.30;;;;;;4814715;29;20195;-77
2021/12/10 13:30:34;;;;;;;0.22;0.20;;;5.90;92.30;;;;;;4800146;29;22004;-78
2021/12/10 13:33:03;;;;;;;0.60;0.20;;;5.90;92.30;;;;;;4816319;29;20062;-78
2021/12/10 13:35:33;;;;;;;1.17;0.30;;;5.90;92.30;;;;;;4809202;29;20772;-78
2021/12/10 13:38:01;;;;;;;0.70;0.25;;;5.90;92.30;;;;;;4807608;29;20384;-80
2021/12/10 13:40:32;;;;;;;0.30;0.17;;;5.90;92.30;;;;;;4808055;29;20042;-78